Time;durP1;ratioP1;P1;durP2;ratioP2;P2;SDS_P1;SDS_P2;PMS_P1;PMS_P2;Temp;Humidity;BMP_temperature;BMP_pressure;BME280_temperature;BME280_humidity;BME280_pressure;Samples;Min_cycle;Max_cycle;Signal;HPM_P1;HPM_P2
2022/05/10 00:01:24;;;;;;;4.97;4.60;;;23.70;54.00;;;;;;5006636;28;20484;-83
2022/05/10 00:03:53;;;;;;;5.33;4.03;;;23.70;54.00;;;;;;5007434;28;20207;-83
2022/05/10 00:06:31;;;;;;;4.33;3.90;;;23.70;54.00;;;;;;4997789;28;20796;-84
2022/05/10 00:09:03;;;;;;;4.80;4.43;;;23.70;54.50;;;;;;5011818;28;20424;-84
2022/05/10 00:11:29;;;;;;;4.57;4.27;;;23.70;54.00;;;;;;5008830;28;20436;-84
2022/05/10 00:13:55;;;;;;;4.70;4.30;;;23.70;53.90;;;;;;5006789;28;20500;-84
2022/05/10 00:16:21;;;;;;;3.70;3.40;;;23.70;53.90;;;;;;5009743;28;20177;-84
2022/05/10 00:18:49;;;;;;;5.10;4.70;;;23.70;53.90;;;;;;5004457;28;20437;-84
2022/05/10 00:24:38;;;;;;;4.23;3.93;;;23.70;53.90;;;;;;5008791;28;20416;-84
2022/05/10 00:27:06;;;;;;;4.50;4.20;;;23.70;53.90;;;;;;5002463;28;20902;-84
2022/05/10 00:29:32;;;;;;;4.33;4.03;;;23.70;53.90;;;;;;4975980;28;20432;-84
2022/05/10 00:32:00;;;;;;;5.47;4.97;;;23.70;53.90;;;;;;5003285;28;20439;-84
2022/05/10 00:34:28;;;;;;;4.17;3.87;;;23.70;53.90;;;;;;5005357;28;20520;-84
2022/05/10 00:36:54;;;;;;;4.50;4.10;;;23.70;53.80;;;;;;5003191;28;20427;-84
2022/05/10 00:39:21;;;;;;;4.53;4.23;;;23.70;53.90;;;;;;5002893;28;20460;-84
2022/05/10 00:42:05;;;;;;;4.93;4.53;;;23.70;53.80;;;;;;5003657;28;20439;-84
2022/05/10 00:44:32;;;;;;;4.13;3.83;;;23.70;53.80;;;;;;5008106;28;20943;-84
2022/05/10 00:47:30;;;;;;;4.90;4.50;;;23.70;53.80;;;;;;5003483;28;20933;-84
2022/05/10 00:50:19;;;;;;;4.27;3.97;;;23.70;53.80;;;;;;5008337;28;20451;-84
2022/05/10 00:52:58;;;;;;;4.50;4.10;;;23.70;53.80;;;;;;5008907;28;20432;-84
2022/05/10 00:55:32;;;;;;;5.20;4.80;;;23.70;53.80;;;;;;4997781;28;20978;-84
2022/05/10 00:58:10;;;;;;;5.10;4.70;;;23.70;53.80;;;;;;5008991;28;20492;-84
2022/05/10 01:00:38;;;;;;;5.90;5.40;;;23.70;53.80;;;;;;5006322;28;20416;-84
2022/05/10 01:03:16;;;;;;;4.60;4.30;;;23.70;53.80;;;;;;5004673;28;20434;-85
2022/05/10 01:06:02;;;;;;;4.63;4.00;;;23.70;53.80;;;;;;5024778;28;20428;-85
2022/05/10 01:08:32;;;;;;;4.97;4.40;;;23.70;53.80;;;;;;4976038;28;20448;-85
2022/05/10 01:11:33;;;;;;;4.60;4.20;;;23.70;53.70;;;;;;4961744;28;20514;-84
2022/05/10 01:14:12;;;;;;;4.73;4.33;;;23.70;53.70;;;;;;4975927;28;20422;-84
2022/05/10 01:16:41;;;;;;;4.70;4.20;;;23.70;53.70;;;;;;4959873;29;20965;-84
2022/05/10 01:19:08;;;;;;;5.10;4.70;;;23.70;54.30;;;;;;4962197;28;20469;-84
2022/05/10 01:22:19;;;;;;;4.67;4.37;;;23.60;53.60;;;;;;4975925;28;20441;-84
2022/05/10 01:28:26;;;;;;;5.03;4.63;;;23.60;53.60;;;;;;4962185;29;20553;-84
2022/05/10 01:30:52;;;;;;;4.63;4.33;;;23.60;53.60;;;;;;4941925;29;20406;-84
2022/05/10 01:33:30;;;;;;;4.50;4.20;;;23.60;53.70;;;;;;4958443;29;20427;-84
2022/05/10 01:36:34;;;;;;;4.63;4.27;;;23.60;53.70;;;;;;4943967;29;20489;-84
2022/05/10 01:39:09;;;;;;;4.20;3.90;;;23.60;53.60;;;;;;4866339;29;20478;-84
2022/05/10 01:41:57;;;;;;;4.50;4.10;;;23.60;53.60;;;;;;4859341;29;20443;-84
2022/05/10 01:44:47;;;;;;;5.20;4.80;;;23.60;53.60;;;;;;4868929;29;20434;-84
2022/05/10 01:47:37;;;;;;;4.50;4.10;;;23.60;53.50;;;;;;4893730;29;20505;-84
2022/05/10 01:50:19;;;;;;;4.77;4.37;;;23.60;53.50;;;;;;4895317;29;20444;-84
2022/05/10 01:53:11;;;;;;;5.20;4.40;;;23.60;53.30;;;;;;4895823;29;20544;-84
2022/05/10 01:55:40;;;;;;;5.20;4.80;;;23.60;53.30;;;;;;4894069;29;21013;-84
2022/05/10 01:58:15;;;;;;;6.37;5.87;;;23.60;53.70;;;;;;4895841;29;20516;-84
2022/05/10 02:00:47;;;;;;;5.40;5.00;;;23.50;53.00;;;;;;4918025;28;20447;-84
2022/05/10 02:03:39;;;;;;;4.43;4.13;;;23.60;53.10;;;;;;5012511;28;20481;-84
2022/05/10 02:06:25;;;;;;;5.77;5.27;;;23.60;53.10;;;;;;5014791;28;20976;-84
2022/05/10 02:09:10;;;;;;;4.90;4.50;;;23.60;53.10;;;;;;5014465;28;20509;-84
2022/05/10 02:11:46;;;;;;;5.10;4.60;;;23.60;53.00;;;;;;5015145;28;20421;-84
2022/05/10 02:14:23;;;;;;;4.87;4.47;;;23.50;52.80;;;;;;4974443;28;20413;-84
2022/05/10 02:17:02;;;;;;;5.50;5.00;;;23.50;52.80;;;;;;4989695;28;20405;-84
2022/05/10 02:19:35;;;;;;;5.10;4.60;;;23.50;52.70;;;;;;4990318;28;20449;-84
2022/05/10 02:22:27;;;;;;;4.30;4.00;;;23.50;52.70;;;;;;4991084;28;20408;-84
2022/05/10 02:25:01;;;;;;;5.13;4.80;;;23.50;52.60;;;;;;5006118;28;20394;-84
2022/05/10 02:27:38;;;;;;;5.23;4.83;;;23.50;52.60;;;;;;4990369;28;20435;-84
2022/05/10 02:30:10;;;;;;;4.80;4.40;;;23.50;52.60;;;;;;4989968;28;20417;-84
2022/05/10 02:35:40;;;;;;;5.67;5.23;;;23.50;52.50;;;;;;4990535;28;20448;-84
2022/05/10 02:38:08;;;;;;;4.90;4.60;;;23.50;52.50;;;;;;5005535;28;20440;-84
2022/05/10 02:40:34;;;;;;;5.37;4.87;;;23.40;52.40;;;;;;4988658;28;20414;-84
2022/05/10 02:43:02;;;;;;;4.93;4.53;;;23.50;52.40;;;;;;4989889;28;20907;-84
2022/05/10 02:45:28;;;;;;;5.13;4.73;;;23.40;52.30;;;;;;4987623;28;20432;-84
2022/05/10 02:47:56;;;;;;;5.30;4.90;;;23.50;52.30;;;;;;4990254;28;20421;-84
2022/05/10 02:50:26;;;;;;;5.30;4.87;;;23.40;52.10;;;;;;4990891;28;20204;-84
2022/05/10 02:52:53;;;;;;;6.17;5.67;;;23.40;52.10;;;;;;4990476;28;20409;-85
2022/05/10 02:55:32;;;;;;;4.80;4.40;;;23.40;52.00;;;;;;4991699;28;20417;-84
2022/05/10 02:58:01;;;;;;;5.13;4.73;;;23.40;52.00;;;;;;4990447;28;20401;-84
2022/05/10 03:00:28;;;;;;;5.53;5.00;;;23.40;51.90;;;;;;4990202;28;20421;-85
2022/05/10 03:06:24;;;;;;;5.93;5.03;;;23.40;52.00;;;;;;4991296;28;20428;-84
2022/05/10 03:08:51;;;;;;;4.87;4.47;;;23.40;52.70;;;;;;4990327;28;20448;-84
2022/05/10 03:11:17;;;;;;;4.83;4.20;;;23.40;52.10;;;;;;4991519;28;20420;-84
2022/05/10 03:13:45;;;;;;;5.73;5.23;;;23.40;52.20;;;;;;4990011;28;20443;-85
2022/05/10 03:16:11;;;;;;;5.50;5.00;;;23.40;52.20;;;;;;4989817;28;20460;-85
2022/05/10 03:18:37;;;;;;;4.70;4.40;;;23.40;52.20;;;;;;4973829;28;20472;-85
2022/05/10 03:21:04;;;;;;;5.43;4.90;;;23.40;52.20;;;;;;4989877;28;20428;-85
2022/05/10 03:23:30;;;;;;;4.90;4.50;;;23.40;52.20;;;;;;4989593;28;20427;-85
2022/05/10 03:25:59;;;;;;;5.20;4.80;;;23.40;52.10;;;;;;4989575;28;20417;-85
2022/05/10 03:28:26;;;;;;;4.87;4.47;;;23.40;52.10;;;;;;4990113;28;20437;-85
2022/05/10 03:30:52;;;;;;;5.40;4.70;;;23.40;52.10;;;;;;4990082;28;20417;-85
2022/05/10 03:33:18;;;;;;;5.30;4.90;;;23.40;52.10;;;;;;5005303;28;20423;-85
2022/05/10 03:35:44;;;;;;;5.13;4.70;;;23.40;52.10;;;;;;4990651;28;20836;-85
2022/05/10 03:38:10;;;;;;;4.60;4.30;;;23.40;52.00;;;;;;4990744;28;20451;-85
2022/05/10 03:40:36;;;;;;;4.70;4.30;;;23.40;52.00;;;;;;5005526;28;20174;-85
2022/05/10 03:43:02;;;;;;;4.80;4.40;;;23.40;52.00;;;;;;4989481;28;20268;-85
2022/05/10 03:45:28;;;;;;;4.40;4.10;;;23.40;52.00;;;;;;4990930;28;20212;-85
2022/05/10 03:47:55;;;;;;;5.10;4.60;;;23.40;52.00;;;;;;4989125;28;20417;-85
2022/05/10 03:50:24;;;;;;;5.17;4.77;;;23.40;52.00;;;;;;4989639;28;20421;-85
2022/05/10 03:52:49;;;;;;;5.17;4.70;;;23.40;52.00;;;;;;4990352;28;20421;-85
2022/05/10 03:55:22;;;;;;;4.90;4.50;;;23.40;51.90;;;;;;5006403;28;20471;-85
2022/05/10 03:57:49;;;;;;;5.57;4.80;;;23.40;51.90;;;;;;4990247;28;20182;-85
2022/05/10 04:00:30;;;;;;;3.90;3.60;;;23.40;51.90;;;;;;4989700;28;20522;-85
2022/05/10 04:02:57;;;;;;;3.90;3.60;;;23.40;52.00;;;;;;4989784;28;20431;-85
2022/05/10 04:05:25;;;;;;;5.30;4.80;;;23.40;52.00;;;;;;4989969;28;20409;-84
2022/05/10 04:07:53;;;;;;;4.50;4.10;;;23.40;52.00;;;;;;4989773;28;20425;-84
2022/05/10 04:10:20;;;;;;;4.73;4.40;;;23.40;52.00;;;;;;4989099;28;20489;-85
2022/05/10 04:13:07;;;;;;;4.23;3.93;;;23.40;52.00;;;;;;4990314;28;20441;-85
2022/05/10 04:15:36;;;;;;;4.13;3.83;;;23.40;52.00;;;;;;4989498;28;21025;-85
2022/05/10 04:18:03;;;;;;;4.50;4.20;;;23.40;52.10;;;;;;4990151;28;20501;-85
2022/05/10 04:20:29;;;;;;;4.20;3.90;;;23.40;52.10;;;;;;4973301;28;20967;-85
2022/05/10 04:23:11;;;;;;;4.17;3.87;;;23.40;52.10;;;;;;4990325;28;20444;-84
2022/05/10 04:25:38;;;;;;;5.07;3.80;;;23.40;52.10;;;;;;4989259;28;20453;-85
2022/05/10 04:28:05;;;;;;;4.57;3.70;;;23.40;52.10;;;;;;4993363;28;20429;-84
2022/05/10 04:30:32;;;;;;;6.47;3.90;;;23.50;52.20;;;;;;4992212;28;20405;-85
2022/05/10 04:32:58;;;;;;;3.90;3.60;;;23.50;52.20;;;;;;5007666;28;20536;-85
2022/05/10 04:35:24;;;;;;;4.17;3.87;;;23.50;52.20;;;;;;4991863;28;20417;-85
2022/05/10 04:37:49;;;;;;;4.20;3.80;;;23.50;52.20;;;;;;4991505;28;20204;-85
2022/05/10 04:43:38;;;;;;;4.27;3.87;;;23.50;52.30;;;;;;4993534;28;20676;-83
2022/05/10 04:46:05;;;;;;;3.40;3.20;;;23.50;52.30;;;;;;4992723;28;20394;-83
2022/05/10 04:48:32;;;;;;;3.87;3.57;;;23.50;52.40;;;;;;4991245;28;20436;-83
2022/05/10 04:50:58;;;;;;;4.00;3.70;;;23.50;52.40;;;;;;4974978;28;20429;-82
2022/05/10 04:53:27;;;;;;;4.07;3.73;;;23.50;52.40;;;;;;4992084;28;20398;-83
2022/05/10 04:55:53;;;;;;;3.73;3.43;;;23.60;52.40;;;;;;4991212;28;20852;-83
2022/05/10 04:58:19;;;;;;;4.23;3.93;;;23.60;52.40;;;;;;4991337;28;20421;-82
2022/05/10 05:00:45;;;;;;;3.63;3.33;;;23.60;52.40;;;;;;4991647;28;20425;-82
2022/05/10 05:03:12;;;;;;;3.50;3.20;;;23.60;52.50;;;;;;4992120;28;20166;-83
2022/05/10 05:05:39;;;;;;;3.47;3.17;;;23.60;52.50;;;;;;4991574;28;20421;-83
2022/05/10 05:08:09;;;;;;;3.60;3.30;;;23.60;52.50;;;;;;4990109;28;20445;-83
2022/05/10 05:10:57;;;;;;;3.73;3.43;;;23.60;52.50;;;;;;5006857;28;20432;-83
2022/05/10 05:13:24;;;;;;;4.10;3.70;;;23.60;52.50;;;;;;4990818;28;20907;-84
2022/05/10 05:15:50;;;;;;;4.00;3.70;;;23.60;52.50;;;;;;4991039;28;20441;-83
2022/05/10 05:18:17;;;;;;;3.20;3.00;;;23.60;52.50;;;;;;4990539;28;20429;-83
2022/05/10 05:20:44;;;;;;;3.70;3.40;;;23.70;52.60;;;;;;5006019;28;20235;-84
2022/05/10 05:23:11;;;;;;;3.53;3.23;;;23.70;52.60;;;;;;4987473;28;20410;-83
2022/05/10 05:25:39;;;;;;;3.43;3.10;;;23.70;52.60;;;;;;4990632;28;20440;-83
2022/05/10 05:28:07;;;;;;;3.50;3.27;;;23.70;52.50;;;;;;4992257;28;20931;-83
2022/05/10 05:30:36;;;;;;;4.90;3.83;;;23.70;52.50;;;;;;4989372;28;20425;-83
2022/05/10 05:33:02;;;;;;;4.20;3.90;;;23.70;52.50;;;;;;5007473;28;20425;-83
2022/05/10 05:35:28;;;;;;;3.77;3.43;;;23.70;52.50;;;;;;4990447;28;20421;-84
2022/05/10 05:37:58;;;;;;;4.20;3.43;;;23.70;52.50;;;;;;4990435;28;20449;-83
2022/05/10 05:40:26;;;;;;;3.93;3.53;;;23.80;52.60;;;;;;5011163;28;20456;-83
2022/05/10 05:42:54;;;;;;;4.10;3.70;;;23.80;52.60;;;;;;5010696;28;20461;-84
2022/05/10 05:45:29;;;;;;;3.70;3.40;;;23.80;52.60;;;;;;5008661;28;20420;-84
2022/05/10 05:47:55;;;;;;;3.63;3.33;;;23.80;52.60;;;;;;5008501;28;20974;-85
2022/05/10 05:53:46;;;;;;;2.93;2.73;;;23.80;52.70;;;;;;5008583;28;20404;-84
2022/05/10 05:56:13;;;;;;;3.50;3.20;;;23.80;52.70;;;;;;5008405;28;20416;-84
2022/05/10 05:58:41;;;;;;;5.00;3.20;;;23.80;52.70;;;;;;5007658;28;20456;-84
2022/05/10 06:01:15;;;;;;;3.73;3.30;;;23.80;52.70;;;;;;5007262;28;20474;-84
2022/05/10 06:03:42;;;;;;;4.27;2.87;;;23.80;52.70;;;;;;5007350;28;20408;-84
2022/05/10 06:06:09;;;;;;;6.10;3.27;;;23.80;52.70;;;;;;5008039;28;20412;-84
2022/05/10 06:08:36;;;;;;;4.43;3.60;;;23.90;52.80;;;;;;5008385;28;20420;-84
2022/05/10 06:11:05;;;;;;;3.77;3.43;;;23.90;52.80;;;;;;5007438;28;20420;-85
2022/05/10 06:13:31;;;;;;;3.20;3.00;;;23.90;52.80;;;;;;5008043;28;20420;-85
2022/05/10 06:19:20;;;;;;;2.87;2.67;;;23.90;52.80;;;;;;5008640;28;20466;-84
2022/05/10 06:21:46;;;;;;;3.03;2.83;;;23.90;52.80;;;;;;5010771;28;20934;-85
2022/05/10 06:24:11;;;;;;;3.40;3.10;;;23.90;52.80;;;;;;5011515;28;20424;-85
2022/05/10 06:26:39;;;;;;;3.50;3.00;;;23.90;52.80;;;;;;5013529;28;20201;-85
2022/05/10 06:29:05;;;;;;;4.13;3.17;;;23.90;52.80;;;;;;4994900;28;20697;-86
2022/05/10 06:31:31;;;;;;;3.80;3.50;;;23.90;52.80;;;;;;5011745;28;20436;-85
2022/05/10 06:33:57;;;;;;;3.07;2.77;;;23.90;52.80;;;;;;5013316;28;20177;-85
2022/05/10 06:36:23;;;;;;;2.87;2.67;;;23.90;52.80;;;;;;5011585;28;20184;-85
2022/05/10 06:38:49;;;;;;;3.30;3.00;;;23.90;52.80;;;;;;5012093;28;20216;-85
2022/05/10 06:41:16;;;;;;;3.67;3.30;;;23.90;52.80;;;;;;5013763;28;20416;-84
2022/05/10 06:43:42;;;;;;;2.63;2.43;;;23.90;52.80;;;;;;5011333;28;20432;-84
2022/05/10 06:46:11;;;;;;;3.10;2.70;;;23.90;52.80;;;;;;5010809;28;20416;-84
2022/05/10 06:48:37;;;;;;;3.40;2.93;;;23.90;52.80;;;;;;5010753;28;20181;-84
2022/05/10 06:51:07;;;;;;;3.90;3.43;;;23.90;52.80;;;;;;5011110;28;20450;-84
2022/05/10 06:53:34;;;;;;;3.53;3.20;;;23.90;52.90;;;;;;5010692;28;20420;-84
2022/05/10 06:56:03;;;;;;;4.13;3.83;;;23.90;52.90;;;;;;5010827;28;20428;-84
2022/05/10 06:58:30;;;;;;;2.90;2.70;;;23.90;52.90;;;;;;5012103;28;20459;-84
2022/05/10 07:00:58;;;;;;;3.73;2.40;;;23.90;52.90;;;;;;5011171;28;20417;-87
2022/05/10 07:03:33;;;;;;;3.10;2.80;;;23.90;52.90;;;;;;4997560;28;20444;-86
2022/05/10 07:06:01;;;;;;;3.43;3.13;;;23.90;52.90;;;;;;4999031;28;20415;-87
2022/05/10 07:08:28;;;;;;;3.07;2.77;;;23.90;52.90;;;;;;5014031;28;20426;-85
2022/05/10 07:10:54;;;;;;;2.63;2.43;;;23.90;52.90;;;;;;5014899;28;20412;-86
2022/05/10 07:13:29;;;;;;;2.63;2.43;;;23.90;52.90;;;;;;5015587;28;20405;-86
2022/05/10 07:15:55;;;;;;;3.10;2.90;;;23.90;52.90;;;;;;5013623;28;20422;-86
2022/05/10 07:18:21;;;;;;;2.80;2.60;;;23.90;52.90;;;;;;5028549;28;20450;-85
2022/05/10 07:20:48;;;;;;;3.10;2.80;;;23.90;53.00;;;;;;5012615;28;20448;-85
2022/05/10 07:23:18;;;;;;;3.00;2.80;;;23.90;53.00;;;;;;5012229;28;21023;-85
2022/05/10 07:25:44;;;;;;;2.80;2.60;;;23.90;53.00;;;;;;5012959;28;20413;-85
2022/05/10 07:28:10;;;;;;;3.30;3.00;;;23.90;53.00;;;;;;5013304;28;20432;-86
2022/05/10 07:30:38;;;;;;;3.07;2.83;;;23.90;53.00;;;;;;5013105;28;20173;-86
2022/05/10 07:33:05;;;;;;;3.20;2.90;;;23.90;53.00;;;;;;5011462;28;20420;-85
2022/05/10 07:38:19;;;;;;;2.53;2.33;;;23.90;53.00;;;;;;5013434;28;20387;-86
2022/05/10 07:40:47;;;;;;;2.80;2.60;;;23.90;53.00;;;;;;5012556;28;20480;-86
2022/05/10 07:43:23;;;;;;;3.20;2.97;;;23.90;53.00;;;;;;5012861;28;20421;-86
2022/05/10 07:45:52;;;;;;;2.70;2.50;;;23.90;53.00;;;;;;5011615;28;20442;-86
2022/05/10 07:48:18;;;;;;;2.70;2.50;;;23.90;53.00;;;;;;5011304;28;20446;-85
2022/05/10 07:50:45;;;;;;;3.00;2.80;;;23.90;53.00;;;;;;5012405;28;20424;-85
2022/05/10 07:53:17;;;;;;;3.00;2.70;;;23.90;53.00;;;;;;5012140;28;20436;-85
2022/05/10 07:55:46;;;;;;;3.40;3.10;;;23.90;53.00;;;;;;5013238;28;20476;-86
2022/05/10 07:58:14;;;;;;;3.63;3.10;;;23.90;53.00;;;;;;5014539;28;20420;-85
2022/05/10 08:00:41;;;;;;;2.93;2.73;;;23.90;53.00;;;;;;4995927;28;20439;-85
2022/05/10 08:03:21;;;;;;;2.60;2.40;;;23.90;53.10;;;;;;5012593;28;20416;-85
2022/05/10 08:05:55;;;;;;;2.70;2.50;;;23.90;53.10;;;;;;5013322;28;20408;-85
2022/05/10 08:08:25;;;;;;;2.70;2.50;;;23.90;53.10;;;;;;5014353;28;20393;-86
2022/05/10 08:10:53;;;;;;;2.80;2.60;;;23.90;53.10;;;;;;5014866;28;20413;-85
2022/05/10 08:13:23;;;;;;;2.70;2.50;;;23.90;53.10;;;;;;5013098;28;20424;-85
2022/05/10 08:15:55;;;;;;;4.40;3.20;;;23.90;53.10;;;;;;5012828;28;20400;-85
2022/05/10 08:18:24;;;;;;;2.70;2.50;;;23.90;53.10;;;;;;5012627;28;20397;-86
2022/05/10 08:20:53;;;;;;;3.47;3.27;;;23.90;53.10;;;;;;5011841;28;20424;-86
2022/05/10 08:23:23;;;;;;;2.73;2.53;;;24.00;53.20;;;;;;5013132;28;20421;-86
2022/05/10 08:25:54;;;;;;;3.00;2.10;;;23.90;53.10;;;;;;4995738;28;20396;-85
2022/05/10 08:28:22;;;;;;;2.70;2.50;;;24.00;53.20;;;;;;5011971;28;20468;-86
2022/05/10 08:30:52;;;;;;;2.67;2.47;;;23.90;53.10;;;;;;5011070;28;20432;-86
2022/05/10 08:33:24;;;;;;;2.70;2.50;;;23.90;53.10;;;;;;4995772;28;20420;-86
2022/05/10 08:35:52;;;;;;;2.90;2.70;;;23.90;53.10;;;;;;5011825;28;20443;-86
2022/05/10 08:38:19;;;;;;;3.23;2.93;;;23.90;53.10;;;;;;5011002;28;20427;-86
2022/05/10 08:41:02;;;;;;;3.00;2.80;;;23.90;53.10;;;;;;5012648;28;20428;-85
2022/05/10 08:43:40;;;;;;;2.80;2.60;;;24.00;53.30;;;;;;5009955;28;20431;-85
2022/05/10 08:46:09;;;;;;;2.57;2.37;;;24.00;53.30;;;;;;5012184;28;20569;-84
2022/05/10 08:48:35;;;;;;;2.90;2.43;;;23.90;53.20;;;;;;5010976;28;20464;-84
2022/05/10 08:54:26;;;;;;;3.07;2.77;;;23.90;53.20;;;;;;5012713;28;20395;-85
2022/05/10 08:57:38;;;;;;;2.53;2.33;;;23.90;53.30;;;;;;5004198;28;20438;-86
2022/05/10 09:00:32;;;;;;;2.67;2.47;;;23.90;53.30;;;;;;5015684;28;20455;-85
2022/05/10 09:03:00;;;;;;;2.43;2.23;;;23.90;53.30;;;;;;4996916;28;20489;-85
2022/05/10 09:05:41;;;;;;;2.80;2.50;;;23.90;53.30;;;;;;5007652;28;20420;-85
2022/05/10 09:08:33;;;;;;;3.03;2.83;;;23.90;53.40;;;;;;5011827;28;20480;-86
2022/05/10 09:11:03;;;;;;;2.93;2.73;;;23.90;53.40;;;;;;5050473;28;20410;-85
2022/05/10 09:13:33;;;;;;;2.77;2.57;;;23.90;53.40;;;;;;5028465;28;20922;-85
2022/05/10 09:16:08;;;;;;;3.07;2.63;;;23.90;53.40;;;;;;5036003;28;20522;-86
2022/05/10 09:18:54;;;;;;;2.70;2.50;;;23.90;53.40;;;;;;5033891;28;20458;-85
2022/05/10 09:21:32;;;;;;;2.73;2.43;;;23.90;53.40;;;;;;5045774;28;20434;-85
2022/05/10 09:24:28;;;;;;;2.63;2.43;;;23.90;53.40;;;;;;5047115;28;20430;-85
2022/05/10 09:27:05;;;;;;;2.60;2.40;;;23.90;53.40;;;;;;5050905;28;20403;-85
2022/05/10 09:29:52;;;;;;;2.77;2.17;;;23.90;53.40;;;;;;5047042;28;20505;-85
2022/05/10 09:35:20;;;;;;;3.03;2.73;;;23.90;53.50;;;;;;5031890;28;20419;-86
2022/05/10 09:37:53;;;;;;;2.83;2.50;;;23.90;53.50;;;;;;5031595;28;20491;-86
2022/05/10 09:40:32;;;;;;;2.50;2.30;;;23.90;53.50;;;;;;5015605;28;20451;-85
2022/05/10 09:43:17;;;;;;;3.80;2.40;;;23.90;53.50;;;;;;5031413;28;20431;-85
2022/05/10 09:45:45;;;;;;;2.80;2.60;;;23.90;53.50;;;;;;5042862;28;20445;-85
2022/05/10 09:48:16;;;;;;;3.07;2.73;;;23.90;53.50;;;;;;5015521;28;20429;-85
2022/05/10 09:50:51;;;;;;;3.27;2.97;;;23.90;53.50;;;;;;4991578;28;20496;-85
2022/05/10 09:53:40;;;;;;;2.40;2.20;;;24.00;53.60;;;;;;4996485;28;20514;-86
2022/05/10 09:56:28;;;;;;;2.80;2.60;;;23.90;53.50;;;;;;5071511;28;20425;-85
2022/05/10 09:58:58;;;;;;;2.70;2.50;;;23.90;53.50;;;;;;5039944;28;20457;-86
2022/05/10 10:01:47;;;;;;;4.63;2.73;;;23.90;53.50;;;;;;5072338;28;20429;-86
2022/05/10 10:04:33;;;;;;;4.13;2.67;;;23.90;53.60;;;;;;5066330;28;20409;-86
2022/05/10 10:07:05;;;;;;;2.80;2.60;;;23.90;54.20;;;;;;5091922;28;20417;-86
2022/05/10 10:09:34;;;;;;;2.83;2.63;;;23.90;53.60;;;;;;5074419;28;20416;-86
2022/05/10 10:12:07;;;;;;;2.60;2.40;;;23.90;53.60;;;;;;5068761;28;20422;-86
2022/05/10 10:14:38;;;;;;;2.70;2.40;;;23.90;53.70;;;;;;5044257;28;20414;-86
2022/05/10 10:17:04;;;;;;;4.33;2.37;;;23.90;53.60;;;;;;5071687;28;20400;-86
2022/05/10 10:19:41;;;;;;;2.50;2.30;;;23.90;53.60;;;;;;5053537;28;20521;-86
2022/05/10 10:22:24;;;;;;;2.27;2.07;;;24.00;53.70;;;;;;5054734;28;20421;-87
2022/05/10 10:25:01;;;;;;;3.60;3.30;;;24.00;53.70;;;;;;5071402;28;20417;-86
2022/05/10 10:27:34;;;;;;;2.67;2.40;;;24.00;53.70;;;;;;5054967;28;20473;-86
2022/05/10 10:30:27;;;;;;;5.40;2.73;;;23.90;53.70;;;;;;5071097;28;20448;-86
2022/05/10 10:33:01;;;;;;;2.53;2.33;;;24.00;53.80;;;;;;5035956;28;20445;-86
2022/05/10 10:35:47;;;;;;;3.10;2.90;;;23.90;53.70;;;;;;4990867;28;20415;-86
2022/05/10 10:41:42;;;;;;;2.67;2.47;;;23.90;53.70;;;;;;4989433;28;20504;-86
2022/05/10 10:44:25;;;;;;;2.77;2.50;;;23.90;53.80;;;;;;5003356;28;20435;-86
2022/05/10 10:46:59;;;;;;;2.73;2.50;;;23.90;53.80;;;;;;4987721;28;20410;-86
2022/05/10 10:49:48;;;;;;;3.40;2.37;;;23.90;53.80;;;;;;4988658;28;20404;-86
2022/05/10 10:52:17;;;;;;;3.17;2.97;;;23.90;53.80;;;;;;5003298;28;20429;-86
2022/05/10 10:54:44;;;;;;;6.40;4.30;;;23.90;53.80;;;;;;5004880;28;20829;-86
2022/05/10 10:57:30;;;;;;;13.53;6.17;;;23.90;53.80;;;;;;5006746;28;20473;-86
2022/05/10 11:00:17;;;;;;;24.23;13.60;;;24.00;53.90;;;;;;5003111;28;20476;-86
2022/05/10 11:03:25;;;;;;;38.33;21.50;;;24.00;53.90;;;;;;4987519;28;20416;-86
2022/05/10 11:06:09;;;;;;;54.13;26.43;;;24.00;53.90;;;;;;5026182;28;20403;-84
2022/05/10 11:08:59;;;;;;;60.50;30.70;;;23.90;53.90;;;;;;4988615;28;20413;-84
2022/05/10 11:11:25;;;;;;;79.57;32.37;;;23.90;53.90;;;;;;5001026;28;20409;-85
2022/05/10 11:14:06;;;;;;;88.57;35.27;;;23.90;54.00;;;;;;5005872;28;20455;-86
2022/05/10 11:16:49;;;;;;;80.47;35.27;;;24.00;54.10;;;;;;4989559;28;20170;-86
2022/05/10 11:19:33;;;;;;;75.93;33.87;;;23.90;54.00;;;;;;4989737;28;20463;-86
2022/05/10 11:22:28;;;;;;;74.67;32.60;;;24.00;54.20;;;;;;4999421;28;20480;-86
2022/05/10 11:25:31;;;;;;;70.40;31.33;;;24.00;54.30;;;;;;5009585;28;20423;-86
2022/05/10 11:28:04;;;;;;;59.30;28.90;;;24.00;54.30;;;;;;5010061;28;20416;-86
2022/05/10 11:30:43;;;;;;;52.10;28.23;;;24.00;54.30;;;;;;5010831;28;20423;-86
2022/05/10 11:33:40;;;;;;;53.83;26.20;;;24.00;54.40;;;;;;5009935;28;20457;-86
2022/05/10 11:36:15;;;;;;;58.50;26.67;;;24.00;54.40;;;;;;5009309;28;20770;-85
2022/05/10 11:39:21;;;;;;;59.70;27.27;;;23.90;54.40;;;;;;5008684;28;20452;-86
2022/05/10 11:42:25;;;;;;;52.63;24.73;;;24.00;54.50;;;;;;5008668;28;20421;-86
2022/05/10 11:45:27;;;;;;;52.97;25.30;;;24.00;54.60;;;;;;5008353;28;20487;-86
2022/05/10 11:48:16;;;;;;;53.47;25.00;;;24.00;54.70;;;;;;4985991;28;20413;-90
2022/05/10 11:54:31;;;;;;;53.40;25.77;;;24.00;54.80;;;;;;4985029;28;20401;-86
2022/05/10 11:56:58;;;;;;;52.20;24.57;;;24.00;54.80;;;;;;4892554;29;20412;-86
2022/05/10 11:59:31;;;;;;;44.10;23.30;;;24.00;54.80;;;;;;4892276;29;20989;-86
2022/05/10 12:01:58;;;;;;;44.20;23.57;;;24.00;54.80;;;;;;4893028;29;20451;-86
2022/05/10 12:04:39;;;;;;;46.53;24.77;;;24.00;54.80;;;;;;4893129;29;20889;-86
2022/05/10 12:07:24;;;;;;;46.53;22.40;;;24.00;54.90;;;;;;4892804;29;20877;-85
2022/05/10 12:09:52;;;;;;;44.00;23.60;;;24.00;54.80;;;;;;4878197;29;20429;-86
2022/05/10 12:12:57;;;;;;;39.37;24.00;;;24.00;54.80;;;;;;4892233;29;20433;-86
2022/05/10 12:22:07;;;;;;;44.87;22.43;;;24.00;54.80;;;;;;4907869;29;20480;-86
2022/05/10 12:24:39;;;;;;;46.70;24.40;;;24.10;54.90;;;;;;4873563;29;20494;-86
2022/05/10 12:27:11;;;;;;;42.63;22.23;;;24.00;54.80;;;;;;4888484;29;20426;-85
2022/05/10 12:29:40;;;;;;;41.33;21.30;;;24.00;55.40;;;;;;4873414;29;20425;-86
2022/05/10 12:32:07;;;;;;;46.07;22.20;;;24.00;54.80;;;;;;4876938;29;20434;-87
2022/05/10 12:34:44;;;;;;;49.03;23.10;;;24.10;54.90;;;;;;4982543;28;20428;-86
2022/05/10 12:37:26;;;;;;;42.97;19.60;;;24.00;54.80;;;;;;5005586;28;20439;-86
2022/05/10 12:40:09;;;;;;;44.83;20.70;;;24.10;54.80;;;;;;5008455;28;20451;-86
2022/05/10 12:42:53;;;;;;;37.90;19.97;;;24.10;54.80;;;;;;5009545;28;20901;-86
2022/05/10 12:45:41;;;;;;;39.53;19.20;;;24.10;54.80;;;;;;5005885;28;20441;-86
2022/05/10 12:48:22;;;;;;;33.73;20.23;;;24.10;54.80;;;;;;5005684;28;20432;-86
2022/05/10 12:51:15;;;;;;;35.20;19.63;;;24.10;54.80;;;;;;5008060;28;20458;-86
2022/05/10 12:54:12;;;;;;;36.33;19.50;;;24.10;54.80;;;;;;5007980;28;20420;-86
2022/05/10 12:56:41;;;;;;;37.40;20.73;;;24.10;54.80;;;;;;5007316;28;20423;-85
2022/05/10 12:59:15;;;;;;;35.40;18.10;;;24.10;54.80;;;;;;5004819;28;21588;-85
2022/05/10 13:01:41;;;;;;;39.77;19.97;;;24.10;54.80;;;;;;5006818;28;20458;-85
2022/05/10 13:04:20;;;;;;;37.17;19.10;;;24.10;54.90;;;;;;5000609;28;20437;-86
2022/05/10 13:07:23;;;;;;;30.73;17.83;;;24.10;54.80;;;;;;5004214;28;20424;-85
2022/05/10 13:10:01;;;;;;;32.20;17.57;;;24.10;54.80;;;;;;5012617;28;20423;-86
2022/05/10 13:12:37;;;;;;;30.20;18.17;;;24.10;54.80;;;;;;5007689;28;20483;-85
2022/05/10 13:15:10;;;;;;;31.03;19.23;;;24.10;54.80;;;;;;4990456;28;20427;-86
2022/05/10 13:17:37;;;;;;;34.77;19.03;;;24.10;54.90;;;;;;5004948;28;20412;-86
2022/05/10 13:20:12;;;;;;;41.90;19.20;;;24.10;54.80;;;;;;5001482;28;20453;-86
2022/05/10 13:22:53;;;;;;;38.13;19.40;;;24.10;54.80;;;;;;5004057;28;20447;-87
2022/05/10 13:25:32;;;;;;;38.67;19.60;;;24.10;54.80;;;;;;5005902;28;20443;-86
2022/05/10 13:28:18;;;;;;;27.27;15.87;;;24.10;54.80;;;;;;5001564;28;20408;-86
2022/05/10 13:30:48;;;;;;;34.80;17.87;;;24.10;54.80;;;;;;5004729;28;20427;-86
2022/05/10 13:33:24;;;;;;;28.50;16.47;;;24.10;54.80;;;;;;5018807;28;20410;-86
2022/05/10 13:35:55;;;;;;;31.77;16.80;;;24.10;54.80;;;;;;5004636;28;20423;-86
2022/05/10 13:38:44;;;;;;;27.27;16.83;;;24.10;54.80;;;;;;5002034;28;20803;-87
2022/05/10 13:41:21;;;;;;;31.93;16.97;;;24.10;54.80;;;;;;5004323;28;20424;-85
2022/05/10 13:43:50;;;;;;;35.97;18.50;;;24.10;54.80;;;;;;4999058;28;20440;-85
2022/05/10 13:46:21;;;;;;;35.33;17.93;;;24.10;54.80;;;;;;4995023;28;20421;-85
2022/05/10 13:49:11;;;;;;;31.23;17.43;;;24.10;54.80;;;;;;4997864;28;20424;-85
2022/05/10 13:51:59;;;;;;;29.30;16.93;;;24.10;55.30;;;;;;5048799;28;20414;-85
2022/05/10 13:54:34;;;;;;;30.43;17.03;;;24.10;54.80;;;;;;5048122;28;20437;-86
2022/05/10 13:57:12;;;;;;;29.03;15.60;;;24.10;54.80;;;;;;5056540;28;20432;-86
2022/05/10 13:59:38;;;;;;;37.40;18.40;;;24.10;54.80;;;;;;5040322;28;20463;-85
2022/05/10 14:02:07;;;;;;;26.17;17.93;;;24.10;54.80;;;;;;5055806;28;20423;-85
2022/05/10 14:04:33;;;;;;;31.77;16.60;;;24.10;54.80;;;;;;5062887;28;20653;-85